Rockton, IL (61072)

7:52 PM CDT on September 17, 2014 (GMT -0500)
Newark Township | Change Station
CLOSE
Current Station
Personal Weather Station
Location: Beloit, WI
Elevation: 781 ft
Nearby Weather Stations

Elev 781 ft 42.53 °N, 89.20 °W | Updated 3 minutes ago

Clear
Clear
58.1 °F
Feels Like 58.1 °F
N
0.0
Wind Variable Wind from North
Gusts 0.0 mph

Today
High -- | Low -- °F
--% Chance of Precip.
Yesterday
High -- | Low -- °F
Precip. -- in
6:38 AM 7:02 PM
Waning Crescent, 31% visible
Pressure 29.98 in
Visibility 10.0 miles
Clouds Clear
Dew Point 52 °F
Humidity 81%
Rainfall -999.00 in
Snow Depth Not available.
UV 0 out of 12
Pollen 5.10 out of 12
Ozone Good
PM2.5 Good
Flu Activity Not available.
METAR KJVL 180045Z 00000KT 10SM CLR 16/11 A2998

More Conditions Fewer Conditions

Pressure 29.98 in
Visibility 10.0 miles
Clouds Clear
Dew Point 52 °F
Humidity 81%
Rainfall -999.00 in
Snow Depth Not available.
UV 0 out of 12
Pollen 5.10 out of 12
Ozone Good
PM2.5 Good
Flu Activity Not available.
METAR KJVL 180045Z 00000KT 10SM CLR 16/11 A2998

More Conditions Fewer Conditions

10-Day Weather Forecast

Almanac

Astronomy

Sep. 17, 2014 Rise Set
Actual Time 6:38 AM CDT 7:02 PM CDT
Civil Twilight 6:10 AM CDT 7:30 PM CDT
Nautical Twilight 5:37 AM CDT 8:03 PM CDT
Astronomical Twilight 5:03 AM CDT 8:37 PM CDT
Moon 12:33 AM CDT (9/17) 3:17 PM CDT (9/17)
Length of Visible Light 13h 20m
Length of Day
12h 24m
Tomorrow will be 2m 50s shorter.
Waning Crescent, 31% of the Moon is Illuminated
Today
Waning Crescent
Sep 24
New
Oct 1
First Quarter
Oct 8
Full
Oct 15
Last Quarter

Today's Extremes

State Highs State Lows

Community

WunderPhotos

Upload Photos

1,754,224 photos uploaded!

Nearby

Air Quality

  Air Quality AQ Index Pollutant
Yesterday Good
OZONE
Yesterday Good
PM2.5
Current Good
OZONE
Current Good
PM2.5
Wednesday Good
PM2.5
Thursday Good
PM2.5
Friday Good
PM2.5

Snow Depth

Station Depth Elevation
No new snow has been reported.

Earthquake Activity

City Distance Mag. Time & Date
No recent earthquake activity has been reported nearby.
Minimum magnitude displayed is 2.5.

Coastal Water Temperatures

Place Temperature
No Stations Reporting

Nearby Weather Stations